MKJPMTPP

Guest
Details From MKJP - Norman Manley Intl
To MTPP - Toussaint Louverture Intl
Flight Number -
Tags Generated
Created
Modified
Stats Distance 259 nm / 480 km
Max Altitude 0 ft / 0 m
Waypoints 3
Social Downloads 7
Likes 0
Share VATSIM

Download

Looking for another format? Having issues loading an existing format? Contact us
Advertisement - Login to hide

Notes

Generated

Route

MKJP R1523 MTPP

ID Type Via Altitude Latitude Longitude Leg Dist Tot Dist Heading (true) Name
O MKJP APT - 0 ft / 0 m 17.94026˚ -76.79945˚ - 0 nm - -
R1523 FIX - 0 ft / 0 m 18.57933˚ -72.30692˚ 259 nm 259 nm 81° / 82° -
O MTPP APT - 0 ft / 0 m 18.57933˚ -72.30692˚ 0 nm 259 nm 0° / 180° -

Altitude Profile

Advertisement - Login to hide

Weather


0- 5 10 15 20 25 30 35+ Temperature / ° C

Clouds and Precipitation
Forecast for 2018-05-21 12:00 UTC. Updated 2 hours ago

Ground ~20,000 ft ~40,000 ft Winds

MKJP

Details ICAO MKJP (KIN)
Name Norman Manley Intl
Region Jamaica
Timezone Unknown (UTC+0.0)
Stats Elevation 10 ft / 3 m (AMSL)
Location 17.935665° -76.787560°
Runways 1
Magnetic Variation 7.590° W

METAR

MKJP 211300Z 12014KT 9999 FEW018 FEW020CB 28/26 Q1013

Decode

TAF

TAF MKJP 211115Z 2112/2212 13020KT 9999 SCT020 FEW022CB TEMPO 2115/2120 7000 SHRA BKN018 SCT020CB BECMG 2202/2204 11010KT SCT020 FEW022CB

Decode

Departure Runways

ID Width Length Bearing (true) Bearing (mag) Surface Threshold Offset Overrun Length
12 150 ft / 46 m 8,912 ft / 2,717 m 112.09° 119.68° Asphalt 0 ft / 0 m 0 ft / 0 m
30 150 ft / 46 m 8,912 ft / 2,717 m 292.10° 299.69° Asphalt 0 ft / 0 m 0 ft / 0 m

MTPP

Details ICAO MTPP (PAP)
Name TOUSSAINT LOUVERTURE INTL
Region Haiti
Timezone America/Port-au-Prince (UTC-4.0)
Stats Elevation 122 ft / 37 m (AMSL)
Location 18.580051° -72.292540°
Runways 1
Magnetic Variation 10.229° W

METAR

MTPP 211300Z 10016KT 9999 FEW024 29/22 Q1013 A2994

Decode

TAF

TAF MTPP 211100Z 2112/2212 10008KT 8000 FEW020 BECMG 2113/2117 09010G20KT PROB30 TEMPO 2122/2201 24006KT 4800 -SHRA FEW024CB SCT040 FM220200 11008KT 7000 SCT030

Decode

Destination Runways

ID Width Length Bearing (true) Bearing (mag) Surface Threshold Offset Overrun Length
10 141 ft / 43 m 9,963 ft / 3,037 m 86.96° 97.19° Asphalt 0 ft / 0 m 0 ft / 0 m
28 141 ft / 43 m 9,963 ft / 3,037 m 266.97° 277.20° Asphalt 0 ft / 0 m 0 ft / 0 m

Approach Navaids

Runway Type Ident Frequency Range Bearing (true) Bearing (mag) Slope Elevation
10 Localiser IMG 111.50 MHz 18 nm / 33 km 87.00° 97.23° - 121 ft / 37 m (AMSL)
10 Glidescope IMG 111.50 MHz 10 nm / 19 km 73.67° 83.90° 3.00° 122 ft / 37 m (AMSL)
10 DME IMG 111.50 MHz 18 nm / 33 km - - - 121 ft / 37 m (AMSL)

Popular Alternatives